sensor_id;sensor_type;location;lat;lon;timestamp;pressure;altitude;pressure_sealevel;temperature;humidity
50867;BME280;36839;51.946;21.002;2023-08-30T00:00:14;98995.01;;;18.60;100.00
50867;BME280;36839;51.946;21.002;2023-08-30T00:03:03;98986.98;;;18.57;100.00
50867;BME280;36839;51.946;21.002;2023-08-30T00:05:39;98982.06;;;18.52;100.00
50867;BME280;36839;51.946;21.002;2023-08-30T00:08:11;98982.38;;;18.49;100.00
50867;BME280;36839;51.946;21.002;2023-08-30T00:10:42;98981.95;;;18.46;100.00
50867;BME280;36839;51.946;21.002;2023-08-30T00:13:10;98984.89;;;18.43;100.00
50867;BME280;36839;51.946;21.002;2023-08-30T00:15:40;98983.96;;;18.41;100.00
50867;BME280;36839;51.946;21.002;2023-08-30T00:18:07;98987.02;;;18.39;100.00
50867;BME280;36839;51.946;21.002;2023-08-30T00:20:37;98983.39;;;18.36;100.00
50867;BME280;36839;51.946;21.002;2023-08-30T00:23:05;98987.84;;;18.35;100.00
50867;BME280;36839;51.946;21.002;2023-08-30T00:25:47;98993.70;;;18.37;100.00
50867;BME280;36839;51.946;21.002;2023-08-30T00:28:14;98997.75;;;18.35;100.00
50867;BME280;36839;51.946;21.002;2023-08-30T00:30:41;99003.92;;;18.36;100.00
50867;BME280;36839;51.946;21.002;2023-08-30T00:33:09;99005.67;;;18.36;100.00
50867;BME280;36839;51.946;21.002;2023-08-30T00:35:37;99006.78;;;18.36;100.00
50867;BME280;36839;51.946;21.002;2023-08-30T00:38:05;99012.18;;;18.37;100.00
50867;BME280;36839;51.946;21.002;2023-08-30T00:40:42;99021.42;;;18.37;100.00
50867;BME280;36839;51.946;21.002;2023-08-30T00:43:10;99024.84;;;18.36;100.00
50867;BME280;36839;51.946;21.002;2023-08-30T00:45:39;99031.07;;;18.33;100.00
50867;BME280;36839;51.946;21.002;2023-08-30T00:48:08;99039.48;;;18.31;100.00
50867;BME280;36839;51.946;21.002;2023-08-30T00:50:37;99050.36;;;18.32;100.00
50867;BME280;36839;51.946;21.002;2023-08-30T00:53:15;99061.61;;;18.31;100.00
50867;BME280;36839;51.946;21.002;2023-08-30T00:55:46;99071.73;;;18.31;100.00
50867;BME280;36839;51.946;21.002;2023-08-30T00:58:13;99076.39;;;18.31;100.00
50867;BME280;36839;51.946;21.002;2023-08-30T01:00:49;99080.63;;;18.31;100.00
50867;BME280;36839;51.946;21.002;2023-08-30T01:03:17;99093.27;;;18.32;100.00
50867;BME280;36839;51.946;21.002;2023-08-30T01:05:48;99101.64;;;18.32;100.00
50867;BME280;36839;51.946;21.002;2023-08-30T01:08:17;99100.66;;;18.31;100.00
50867;BME280;36839;51.946;21.002;2023-08-30T01:11:01;99098.08;;;18.30;100.00
50867;BME280;36839;51.946;21.002;2023-08-30T01:13:33;99099.79;;;18.32;100.00
50867;BME280;36839;51.946;21.002;2023-08-30T01:16:04;99096.92;;;18.32;100.00
50867;BME280;36839;51.946;21.002;2023-08-30T01:18:34;99093.81;;;18.32;100.00
50867;BME280;36839;51.946;21.002;2023-08-30T01:21:08;99093.98;;;18.32;100.00
50867;BME280;36839;51.946;21.002;2023-08-30T01:23:56;99089.36;;;18.30;100.00
50867;BME280;36839;51.946;21.002;2023-08-30T01:27:10;99082.98;;;18.26;100.00
50867;BME280;36839;51.946;21.002;2023-08-30T01:29:43;99087.77;;;18.20;100.00
50867;BME280;36839;51.946;21.002;2023-08-30T01:32:15;99086.22;;;18.17;100.00
50867;BME280;36839;51.946;21.002;2023-08-30T01:34:51;99081.64;;;18.14;100.00
50867;BME280;36839;51.946;21.002;2023-08-30T01:37:18;99077.17;;;18.10;100.00
50867;BME280;36839;51.946;21.002;2023-08-30T01:39:45;99074.80;;;18.06;100.00
50867;BME280;36839;51.946;21.002;2023-08-30T01:42:15;99072.17;;;18.01;100.00
50867;BME280;36839;51.946;21.002;2023-08-30T01:44:55;99069.74;;;17.97;100.00
50867;BME280;36839;51.946;21.002;2023-08-30T01:47:26;99071.34;;;17.94;100.00
50867;BME280;36839;51.946;21.002;2023-08-30T01:49:55;99066.39;;;17.90;100.00
50867;BME280;36839;51.946;21.002;2023-08-30T01:52:23;99055.92;;;17.88;100.00
50867;BME280;36839;51.946;21.002;2023-08-30T01:54:55;99046.67;;;17.85;100.00
50867;BME280;36839;51.946;21.002;2023-08-30T01:57:24;99042.01;;;17.82;100.00
50867;BME280;36839;51.946;21.002;2023-08-30T01:59:57;99038.36;;;17.78;100.00
50867;BME280;36839;51.946;21.002;2023-08-30T02:02:33;99037.52;;;17.77;100.00
50867;BME280;36839;51.946;21.002;2023-08-30T02:05:04;99030.94;;;17.76;100.00
50867;BME280;36839;51.946;21.002;2023-08-30T02:07:58;99029.17;;;17.75;100.00
50867;BME280;36839;51.946;21.002;2023-08-30T02:10:34;99021.55;;;17.74;100.00
50867;BME280;36839;51.946;21.002;2023-08-30T02:13:03;99015.02;;;17.70;100.00
50867;BME280;36839;51.946;21.002;2023-08-30T02:15:33;99010.46;;;17.65;100.00
50867;BME280;36839;51.946;21.002;2023-08-30T02:18:06;99009.81;;;17.65;100.00
50867;BME280;36839;51.946;21.002;2023-08-30T02:20:33;99010.83;;;17.62;100.00
50867;BME280;36839;51.946;21.002;2023-08-30T02:23:00;99009.23;;;17.60;100.00
50867;BME280;36839;51.946;21.002;2023-08-30T02:25:28;99002.30;;;17.58;100.00
50867;BME280;36839;51.946;21.002;2023-08-30T02:27:55;98996.54;;;17.55;100.00
50867;BME280;36839;51.946;21.002;2023-08-30T02:30:24;98991.91;;;17.51;100.00
50867;BME280;36839;51.946;21.002;2023-08-30T02:32:51;98986.03;;;17.46;100.00
50867;BME280;36839;51.946;21.002;2023-08-30T02:35:18;98977.77;;;17.40;100.00
50867;BME280;36839;51.946;21.002;2023-08-30T02:37:47;98975.88;;;17.36;100.00
50867;BME280;36839;51.946;21.002;2023-08-30T02:40:13;98978.84;;;17.34;100.00
50867;BME280;36839;51.946;21.002;2023-08-30T02:42:40;98982.40;;;17.32;100.00
50867;BME280;36839;51.946;21.002;2023-08-30T02:45:08;98981.55;;;17.32;100.00
50867;BME280;36839;51.946;21.002;2023-08-30T02:47:35;98984.29;;;17.35;100.00
50867;BME280;36839;51.946;21.002;2023-08-30T02:50:05;98991.68;;;17.37;100.00
50867;BME280;36839;51.946;21.002;2023-08-30T02:52:32;98991.83;;;17.32;100.00
50867;BME280;36839;51.946;21.002;2023-08-30T02:54:59;98993.88;;;17.29;100.00
50867;BME280;36839;51.946;21.002;2023-08-30T02:57:28;98994.01;;;17.26;100.00
50867;BME280;36839;51.946;21.002;2023-08-30T02:59:55;98996.01;;;17.22;100.00
50867;BME280;36839;51.946;21.002;2023-08-30T03:02:21;98994.33;;;17.19;100.00
50867;BME280;36839;51.946;21.002;2023-08-30T03:04:48;98994.65;;;17.17;100.00
50867;BME280;36839;51.946;21.002;2023-08-30T03:07:18;98992.40;;;17.12;100.00
50867;BME280;36839;51.946;21.002;2023-08-30T03:09:44;98988.78;;;17.07;100.00
50867;BME280;36839;51.946;21.002;2023-08-30T03:12:11;98983.50;;;17.02;100.00
50867;BME280;36839;51.946;21.002;2023-08-30T03:14:38;98979.48;;;16.99;100.00
50867;BME280;36839;51.946;21.002;2023-08-30T03:17:05;98976.58;;;16.98;100.00
50867;BME280;36839;51.946;21.002;2023-08-30T03:19:32;98977.85;;;16.96;100.00
50867;BME280;36839;51.946;21.002;2023-08-30T03:22:04;98975.73;;;16.95;100.00
50867;BME280;36839;51.946;21.002;2023-08-30T03:24:30;98967.36;;;16.92;100.00
50867;BME280;36839;51.946;21.002;2023-08-30T03:26:57;98968.23;;;16.89;100.00
50867;BME280;36839;51.946;21.002;2023-08-30T03:29:23;98968.98;;;16.87;100.00
50867;BME280;36839;51.946;21.002;2023-08-30T03:31:50;98974.55;;;16.84;100.00
50867;BME280;36839;51.946;21.002;2023-08-30T03:34:19;98974.09;;;16.82;100.00
50867;BME280;36839;51.946;21.002;2023-08-30T03:36:45;98966.80;;;16.79;100.00
50867;BME280;36839;51.946;21.002;2023-08-30T03:39:17;98961.23;;;16.77;100.00
50867;BME280;36839;51.946;21.002;2023-08-30T03:41:43;98966.20;;;16.76;100.00
50867;BME280;36839;51.946;21.002;2023-08-30T03:44:12;98967.70;;;16.75;100.00
50867;BME280;36839;51.946;21.002;2023-08-30T03:46:41;98965.54;;;16.77;100.00
50867;BME280;36839;51.946;21.002;2023-08-30T03:49:10;98962.98;;;16.78;100.00
50867;BME280;36839;51.946;21.002;2023-08-30T03:51:38;98958.86;;;16.79;100.00
50867;BME280;36839;51.946;21.002;2023-08-30T03:54:07;98958.30;;;16.79;100.00
50867;BME280;36839;51.946;21.002;2023-08-30T03:56:40;98962.67;;;16.79;100.00
50867;BME280;36839;51.946;21.002;2023-08-30T03:59:10;98965.30;;;16.81;100.00
50867;BME280;36839;51.946;21.002;2023-08-30T04:01:38;98962.54;;;16.84;100.00
50867;BME280;36839;51.946;21.002;2023-08-30T04:04:20;98959.62;;;16.90;100.00
50867;BME280;36839;51.946;21.002;2023-08-30T04:06:46;98954.89;;;16.93;100.00
50867;BME280;36839;51.946;21.002;2023-08-30T04:09:13;98943.96;;;16.95;100.00
50867;BME280;36839;51.946;21.002;2023-08-30T04:11:39;98939.41;;;16.96;100.00
50867;BME280;36839;51.946;21.002;2023-08-30T04:14:09;98938.17;;;16.98;100.00
50867;BME280;36839;51.946;21.002;2023-08-30T04:16:37;98945.64;;;16.97;100.00
50867;BME280;36839;51.946;21.002;2023-08-30T04:19:05;98951.02;;;16.99;100.00
50867;BME280;36839;51.946;21.002;2023-08-30T04:21:47;98964.94;;;17.00;100.00
50867;BME280;36839;51.946;21.002;2023-08-30T04:24:15;98965.63;;;17.01;100.00
50867;BME280;36839;51.946;21.002;2023-08-30T04:26:46;98962.24;;;17.05;100.00
50867;BME280;36839;51.946;21.002;2023-08-30T04:29:17;98964.59;;;17.07;100.00
50867;BME280;36839;51.946;21.002;2023-08-30T04:31:46;98965.36;;;17.07;100.00
50867;BME280;36839;51.946;21.002;2023-08-30T04:34:12;98969.45;;;17.06;100.00
50867;BME280;36839;51.946;21.002;2023-08-30T04:36:39;98971.59;;;17.05;100.00
50867;BME280;36839;51.946;21.002;2023-08-30T04:39:06;98980.26;;;17.07;100.00
50867;BME280;36839;51.946;21.002;2023-08-30T04:41:35;98982.72;;;17.09;100.00
50867;BME280;36839;51.946;21.002;2023-08-30T04:44:11;98981.28;;;17.11;100.00
50867;BME280;36839;51.946;21.002;2023-08-30T04:46:39;98983.95;;;17.12;100.00
50867;BME280;36839;51.946;21.002;2023-08-30T04:49:08;98988.61;;;17.15;100.00
50867;BME280;36839;51.946;21.002;2023-08-30T04:51:47;98997.56;;;17.16;100.00
50867;BME280;36839;51.946;21.002;2023-08-30T04:54:17;99010.16;;;17.19;100.00
50867;BME280;36839;51.946;21.002;2023-08-30T04:56:45;99018.29;;;17.23;100.00
50867;BME280;36839;51.946;21.002;2023-08-30T04:59:15;99021.83;;;17.28;100.00
50867;BME280;36839;51.946;21.002;2023-08-30T05:01:43;99021.73;;;17.32;100.00
50867;BME280;36839;51.946;21.002;2023-08-30T05:04:11;99019.91;;;17.33;100.00
50867;BME280;36839;51.946;21.002;2023-08-30T05:06:39;99023.85;;;17.33;100.00
50867;BME280;36839;51.946;21.002;2023-08-30T05:09:07;99025.95;;;17.34;100.00
50867;BME280;36839;51.946;21.002;2023-08-30T05:11:46;99030.27;;;17.36;100.00
50867;BME280;36839;51.946;21.002;2023-08-30T05:14:17;99030.25;;;17.40;100.00
50867;BME280;36839;51.946;21.002;2023-08-30T05:16:43;99035.92;;;17.45;100.00
50867;BME280;36839;51.946;21.002;2023-08-30T05:19:12;99041.52;;;17.51;100.00
50867;BME280;36839;51.946;21.002;2023-08-30T05:21:40;99044.37;;;17.56;100.00
50867;BME280;36839;51.946;21.002;2023-08-30T05:24:07;99038.73;;;17.57;100.00
50867;BME280;36839;51.946;21.002;2023-08-30T05:26:35;99041.27;;;17.59;100.00
50867;BME280;36839;51.946;21.002;2023-08-30T05:29:03;99038.91;;;17.58;100.00
50867;BME280;36839;51.946;21.002;2023-08-30T05:31:30;99039.34;;;17.54;100.00
50867;BME280;36839;51.946;21.002;2023-08-30T05:33:56;99043.91;;;17.46;100.00
50867;BME280;36839;51.946;21.002;2023-08-30T05:36:23;99050.95;;;17.42;100.00
50867;BME280;36839;51.946;21.002;2023-08-30T05:38:51;99048.32;;;17.42;100.00
50867;BME280;36839;51.946;21.002;2023-08-30T05:41:18;99055.60;;;17.38;100.00
50867;BME280;36839;51.946;21.002;2023-08-30T05:43:45;99056.04;;;17.37;100.00
50867;BME280;36839;51.946;21.002;2023-08-30T05:46:11;99060.02;;;17.36;100.00
50867;BME280;36839;51.946;21.002;2023-08-30T05:48:43;99057.95;;;17.36;100.00
50867;BME280;36839;51.946;21.002;2023-08-30T05:51:09;99058.48;;;17.38;100.00
50867;BME280;36839;51.946;21.002;2023-08-30T05:53:36;99057.41;;;17.37;100.00
50867;BME280;36839;51.946;21.002;2023-08-30T05:56:04;99053.79;;;17.36;100.00
50867;BME280;36839;51.946;21.002;2023-08-30T05:58:33;99051.52;;;17.31;100.00
50867;BME280;36839;51.946;21.002;2023-08-30T06:01:02;99050.23;;;17.29;100.00
50867;BME280;36839;51.946;21.002;2023-08-30T06:03:36;99052.08;;;17.29;100.00
50867;BME280;36839;51.946;21.002;2023-08-30T06:06:04;99050.34;;;17.29;100.00
50867;BME280;36839;51.946;21.002;2023-08-30T06:08:31;99054.49;;;17.30;100.00
50867;BME280;36839;51.946;21.002;2023-08-30T06:10:58;99056.45;;;17.28;100.00
50867;BME280;36839;51.946;21.002;2023-08-30T06:13:25;99055.66;;;17.29;100.00
50867;BME280;36839;51.946;21.002;2023-08-30T06:15:51;99059.27;;;17.27;100.00
50867;BME280;36839;51.946;21.002;2023-08-30T06:18:19;99060.91;;;17.26;100.00
50867;BME280;36839;51.946;21.002;2023-08-30T06:20:51;99062.70;;;17.23;100.00
50867;BME280;36839;51.946;21.002;2023-08-30T06:23:18;99059.65;;;17.20;100.00
50867;BME280;36839;51.946;21.002;2023-08-30T06:25:57;99055.23;;;17.19;100.00
50867;BME280;36839;51.946;21.002;2023-08-30T06:28:24;99057.93;;;17.19;100.00
50867;BME280;36839;51.946;21.002;2023-08-30T06:30:52;99060.60;;;17.20;100.00
50867;BME280;36839;51.946;21.002;2023-08-30T06:33:29;99056.70;;;17.20;100.00
50867;BME280;36839;51.946;21.002;2023-08-30T06:35:56;99052.67;;;17.21;100.00
50867;BME280;36839;51.946;21.002;2023-08-30T06:38:24;99052.56;;;17.20;100.00
50867;BME280;36839;51.946;21.002;2023-08-30T06:40:50;99051.25;;;17.19;100.00
50867;BME280;36839;51.946;21.002;2023-08-30T06:43:17;99054.58;;;17.16;100.00
50867;BME280;36839;51.946;21.002;2023-08-30T06:45:45;99055.98;;;17.18;100.00
50867;BME280;36839;51.946;21.002;2023-08-30T06:48:17;99053.58;;;17.13;100.00
50867;BME280;36839;51.946;21.002;2023-08-30T06:50:45;99054.23;;;17.13;100.00
50867;BME280;36839;51.946;21.002;2023-08-30T06:53:14;99054.50;;;17.12;100.00
50867;BME280;36839;51.946;21.002;2023-08-30T06:55:45;99056.64;;;17.14;100.00
50867;BME280;36839;51.946;21.002;2023-08-30T06:58:12;99056.21;;;17.15;100.00
50867;BME280;36839;51.946;21.002;2023-08-30T07:00:39;99054.55;;;17.14;100.00
50867;BME280;36839;51.946;21.002;2023-08-30T07:03:06;99056.49;;;17.28;100.00
50867;BME280;36839;51.946;21.002;2023-08-30T07:05:33;99062.52;;;17.42;100.00
50867;BME280;36839;51.946;21.002;2023-08-30T07:08:00;99062.35;;;17.62;100.00
50867;BME280;36839;51.946;21.002;2023-08-30T07:10:28;99068.87;;;17.77;100.00
50867;BME280;36839;51.946;21.002;2023-08-30T07:12:55;99069.88;;;17.87;100.00
50867;BME280;36839;51.946;21.002;2023-08-30T07:15:22;99068.72;;;17.95;100.00
50867;BME280;36839;51.946;21.002;2023-08-30T07:17:48;99072.69;;;18.02;100.00
50867;BME280;36839;51.946;21.002;2023-08-30T07:20:16;99075.05;;;18.10;100.00
50867;BME280;36839;51.946;21.002;2023-08-30T07:22:46;99080.23;;;18.18;100.00
50867;BME280;36839;51.946;21.002;2023-08-30T07:25:14;99078.73;;;18.09;100.00
50867;BME280;36839;51.946;21.002;2023-08-30T07:27:43;99083.30;;;18.11;100.00
50867;BME280;36839;51.946;21.002;2023-08-30T07:30:12;99082.29;;;18.05;100.00
50867;BME280;36839;51.946;21.002;2023-08-30T07:32:42;99075.48;;;18.07;100.00
50867;BME280;36839;51.946;21.002;2023-08-30T07:35:17;99063.44;;;18.02;100.00
50867;BME280;36839;51.946;21.002;2023-08-30T07:37:46;99068.20;;;17.89;100.00
50867;BME280;36839;51.946;21.002;2023-08-30T07:40:17;99070.00;;;17.89;100.00
50867;BME280;36839;51.946;21.002;2023-08-30T07:42:56;99075.15;;;17.90;100.00
50867;BME280;36839;51.946;21.002;2023-08-30T07:45:26;99075.70;;;17.89;100.00
50867;BME280;36839;51.946;21.002;2023-08-30T07:47:53;99066.50;;;17.77;100.00
50867;BME280;36839;51.946;21.002;2023-08-30T07:50:20;99051.89;;;17.66;100.00
50867;BME280;36839;51.946;21.002;2023-08-30T07:52:47;99041.95;;;17.56;100.00
50867;BME280;36839;51.946;21.002;2023-08-30T07:55:16;99043.58;;;17.50;100.00
50867;BME280;36839;51.946;21.002;2023-08-30T07:58:00;99052.33;;;17.56;100.00
50867;BME280;36839;51.946;21.002;2023-08-30T08:00:34;99058.89;;;17.61;100.00
50867;BME280;36839;51.946;21.002;2023-08-30T08:03:03;99059.70;;;17.66;100.00
50867;BME280;36839;51.946;21.002;2023-08-30T08:05:30;99052.23;;;17.64;100.00
50867;BME280;36839;51.946;21.002;2023-08-30T08:08:00;99053.77;;;17.63;100.00
50867;BME280;36839;51.946;21.002;2023-08-30T08:10:34;99049.91;;;17.71;100.00
50867;BME280;36839;51.946;21.002;2023-08-30T08:13:02;99047.95;;;17.76;100.00
50867;BME280;36839;51.946;21.002;2023-08-30T08:15:33;99050.21;;;17.75;100.00
50867;BME280;36839;51.946;21.002;2023-08-30T08:18:01;99046.86;;;17.70;100.00
50867;BME280;36839;51.946;21.002;2023-08-30T08:20:30;99040.23;;;17.68;100.00
50867;BME280;36839;51.946;21.002;2023-08-30T08:23:07;99041.17;;;17.68;100.00
50867;BME280;36839;51.946;21.002;2023-08-30T08:26:00;99044.11;;;17.62;100.00
50867;BME280;36839;51.946;21.002;2023-08-30T08:28:30;99050.42;;;17.59;100.00
50867;BME280;36839;51.946;21.002;2023-08-30T08:31:01;99054.70;;;17.55;100.00
50867;BME280;36839;51.946;21.002;2023-08-30T08:33:36;99053.67;;;17.56;100.00
50867;BME280;36839;51.946;21.002;2023-08-30T08:36:07;99051.30;;;17.54;100.00
50867;BME280;36839;51.946;21.002;2023-08-30T08:38:36;99049.83;;;17.53;100.00
50867;BME280;36839;51.946;21.002;2023-08-30T08:41:13;99049.33;;;17.54;100.00
50867;BME280;36839;51.946;21.002;2023-08-30T08:43:46;99052.42;;;17.59;100.00
50867;BME280;36839;51.946;21.002;2023-08-30T08:46:18;99049.61;;;17.60;100.00
50867;BME280;36839;51.946;21.002;2023-08-30T08:49:02;99047.90;;;17.64;100.00
50867;BME280;36839;51.946;21.002;2023-08-30T08:51:31;99049.19;;;17.66;100.00
50867;BME280;36839;51.946;21.002;2023-08-30T08:54:04;99050.47;;;17.57;100.00
50867;BME280;36839;51.946;21.002;2023-08-30T08:56:33;99051.88;;;17.53;100.00
50867;BME280;36839;51.946;21.002;2023-08-30T08:59:02;99056.77;;;17.51;100.00
50867;BME280;36839;51.946;21.002;2023-08-30T09:01:30;99057.19;;;17.51;100.00
50867;BME280;36839;51.946;21.002;2023-08-30T09:04:11;99055.65;;;17.51;100.00
50867;BME280;36839;51.946;21.002;2023-08-30T09:06:40;99056.92;;;17.46;100.00
50867;BME280;36839;51.946;21.002;2023-08-30T09:09:15;99057.31;;;17.46;100.00
50867;BME280;36839;51.946;21.002;2023-08-30T09:11:43;99055.67;;;17.44;100.00
50867;BME280;36839;51.946;21.002;2023-08-30T09:14:12;99056.92;;;17.44;100.00
50867;BME280;36839;51.946;21.002;2023-08-30T09:16:42;99050.37;;;17.46;100.00
50867;BME280;36839;51.946;21.002;2023-08-30T09:19:20;99054.23;;;17.43;100.00
50867;BME280;36839;51.946;21.002;2023-08-30T09:21:58;99049.70;;;17.43;100.00
50867;BME280;36839;51.946;21.002;2023-08-30T09:24:37;99055.01;;;17.48;100.00
50867;BME280;36839;51.946;21.002;2023-08-30T09:27:03;99057.74;;;17.49;100.00
50867;BME280;36839;51.946;21.002;2023-08-30T09:29:31;99063.96;;;17.47;100.00
50867;BME280;36839;51.946;21.002;2023-08-30T09:32:00;99064.25;;;17.43;100.00
50867;BME280;36839;51.946;21.002;2023-08-30T09:34:32;99062.80;;;17.41;100.00
50867;BME280;36839;51.946;21.002;2023-08-30T09:36:59;99058.88;;;17.40;100.00
50867;BME280;36839;51.946;21.002;2023-08-30T09:39:28;99058.80;;;17.36;100.00
50867;BME280;36839;51.946;21.002;2023-08-30T09:42:02;99058.98;;;17.34;100.00
50867;BME280;36839;51.946;21.002;2023-08-30T09:44:30;99055.69;;;17.38;100.00
50867;BME280;36839;51.946;21.002;2023-08-30T09:46:57;99055.95;;;17.41;100.00
50867;BME280;36839;51.946;21.002;2023-08-30T09:49:26;99054.16;;;17.45;100.00
50867;BME280;36839;51.946;21.002;2023-08-30T09:51:54;99057.79;;;17.48;100.00
50867;BME280;36839;51.946;21.002;2023-08-30T09:54:32;99051.98;;;17.46;100.00
50867;BME280;36839;51.946;21.002;2023-08-30T09:57:05;99052.54;;;17.46;100.00
50867;BME280;36839;51.946;21.002;2023-08-30T09:59:42;99052.55;;;17.53;100.00
50867;BME280;36839;51.946;21.002;2023-08-30T10:02:12;99050.98;;;17.58;100.00
50867;BME280;36839;51.946;21.002;2023-08-30T10:04:43;99047.70;;;17.58;100.00
50867;BME280;36839;51.946;21.002;2023-08-30T10:07:15;99046.80;;;17.62;100.00
50867;BME280;36839;51.946;21.002;2023-08-30T10:09:45;99048.89;;;17.64;100.00
50867;BME280;36839;51.946;21.002;2023-08-30T10:12:12;99047.16;;;17.63;100.00
50867;BME280;36839;51.946;21.002;2023-08-30T10:14:41;99050.88;;;17.58;100.00
50867;BME280;36839;51.946;21.002;2023-08-30T10:17:12;99049.02;;;17.55;100.00
50867;BME280;36839;51.946;21.002;2023-08-30T10:19:47;99050.92;;;17.55;100.00
50867;BME280;36839;51.946;21.002;2023-08-30T10:22:21;99049.07;;;17.54;100.00
50867;BME280;36839;51.946;21.002;2023-08-30T10:25:02;99054.98;;;17.57;100.00
50867;BME280;36839;51.946;21.002;2023-08-30T10:27:33;99062.08;;;17.59;100.00
50867;BME280;36839;51.946;21.002;2023-08-30T10:30:25;99065.21;;;17.60;100.00
50867;BME280;36839;51.946;21.002;2023-08-30T10:33:00;99067.48;;;17.58;100.00
50867;BME280;36839;51.946;21.002;2023-08-30T10:35:27;99062.61;;;17.58;100.00
50867;BME280;36839;51.946;21.002;2023-08-30T10:37:58;99063.73;;;17.58;100.00
50867;BME280;36839;51.946;21.002;2023-08-30T10:40:25;99063.34;;;17.58;100.00
50867;BME280;36839;51.946;21.002;2023-08-30T10:42:59;99063.02;;;17.51;100.00
50867;BME280;36839;51.946;21.002;2023-08-30T10:45:28;99067.38;;;17.49;100.00
50867;BME280;36839;51.946;21.002;2023-08-30T10:48:03;99066.45;;;17.49;100.00
50867;BME280;36839;51.946;21.002;2023-08-30T10:50:34;99068.41;;;17.57;100.00
50867;BME280;36839;51.946;21.002;2023-08-30T10:53:03;99068.98;;;17.56;100.00
50867;BME280;36839;51.946;21.002;2023-08-30T10:56:02;99065.67;;;17.48;100.00
50867;BME280;36839;51.946;21.002;2023-08-30T10:58:40;99069.23;;;17.44;100.00
50867;BME280;36839;51.946;21.002;2023-08-30T11:01:13;99068.42;;;17.44;100.00
50867;BME280;36839;51.946;21.002;2023-08-30T11:03:41;99068.17;;;17.48;100.00
50867;BME280;36839;51.946;21.002;2023-08-30T11:06:22;99068.60;;;17.40;100.00
50867;BME280;36839;51.946;21.002;2023-08-30T11:08:53;99069.95;;;17.38;100.00
50867;BME280;36839;51.946;21.002;2023-08-30T11:11:25;99073.73;;;17.37;100.00
50867;BME280;36839;51.946;21.002;2023-08-30T11:13:54;99081.83;;;17.31;100.00
50867;BME280;36839;51.946;21.002;2023-08-30T11:16:23;99084.71;;;17.32;100.00
50867;BME280;36839;51.946;21.002;2023-08-30T11:18:51;99080.42;;;17.34;100.00
50867;BME280;36839;51.946;21.002;2023-08-30T11:21:20;99084.77;;;17.42;100.00
50867;BME280;36839;51.946;21.002;2023-08-30T11:24:06;99087.29;;;17.50;100.00
50867;BME280;36839;51.946;21.002;2023-08-30T11:26:52;99087.38;;;17.52;100.00
50867;BME280;36839;51.946;21.002;2023-08-30T11:29:20;99087.25;;;17.55;100.00
50867;BME280;36839;51.946;21.002;2023-08-30T11:31:49;99086.53;;;17.58;100.00
50867;BME280;36839;51.946;21.002;2023-08-30T11:34:22;99089.61;;;17.61;100.00
50867;BME280;36839;51.946;21.002;2023-08-30T11:36:50;99094.91;;;17.64;100.00
50867;BME280;36839;51.946;21.002;2023-08-30T11:39:20;99092.95;;;17.59;100.00
50867;BME280;36839;51.946;21.002;2023-08-30T11:41:50;99092.59;;;17.62;100.00
50867;BME280;36839;51.946;21.002;2023-08-30T11:44:19;99093.63;;;17.67;100.00
50867;BME280;36839;51.946;21.002;2023-08-30T11:46:48;99093.27;;;17.72;100.00
50867;BME280;36839;51.946;21.002;2023-08-30T11:49:19;99091.04;;;17.81;100.00
50867;BME280;36839;51.946;21.002;2023-08-30T11:51:51;99089.91;;;17.85;100.00
50867;BME280;36839;51.946;21.002;2023-08-30T11:54:20;99087.23;;;17.88;100.00
50867;BME280;36839;51.946;21.002;2023-08-30T11:56:48;99083.18;;;17.93;100.00
50867;BME280;36839;51.946;21.002;2023-08-30T11:59:26;99090.27;;;17.98;100.00
50867;BME280;36839;51.946;21.002;2023-08-30T12:01:59;99093.95;;;18.02;100.00
50867;BME280;36839;51.946;21.002;2023-08-30T12:04:27;99095.05;;;17.97;100.00
50867;BME280;36839;51.946;21.002;2023-08-30T12:06:54;99093.52;;;17.92;100.00
50867;BME280;36839;51.946;21.002;2023-08-30T12:09:21;99092.60;;;17.93;100.00
50867;BME280;36839;51.946;21.002;2023-08-30T12:11:51;99096.89;;;17.97;100.00
50867;BME280;36839;51.946;21.002;2023-08-30T12:14:20;99098.44;;;17.99;100.00
50867;BME280;36839;51.946;21.002;2023-08-30T12:16:46;99096.27;;;18.00;100.00
50867;BME280;36839;51.946;21.002;2023-08-30T12:19:16;99096.14;;;17.99;100.00
50867;BME280;36839;51.946;21.002;2023-08-30T12:21:47;99084.17;;;17.97;100.00
50867;BME280;36839;51.946;21.002;2023-08-30T12:24:14;99081.35;;;18.03;100.00
50867;BME280;36839;51.946;21.002;2023-08-30T12:26:40;99072.73;;;18.06;100.00
50867;BME280;36839;51.946;21.002;2023-08-30T12:29:07;99064.00;;;18.14;100.00
50867;BME280;36839;51.946;21.002;2023-08-30T12:31:34;99057.18;;;18.23;100.00
50867;BME280;36839;51.946;21.002;2023-08-30T12:34:00;99058.63;;;18.28;100.00
50867;BME280;36839;51.946;21.002;2023-08-30T12:36:30;99063.52;;;18.29;100.00
50867;BME280;36839;51.946;21.002;2023-08-30T12:38:58;99064.52;;;18.35;100.00
50867;BME280;36839;51.946;21.002;2023-08-30T12:41:26;99060.70;;;18.33;100.00
50867;BME280;36839;51.946;21.002;2023-08-30T12:43:56;99060.19;;;18.32;100.00
50867;BME280;36839;51.946;21.002;2023-08-30T12:46:25;99061.42;;;18.23;100.00
50867;BME280;36839;51.946;21.002;2023-08-30T12:48:55;99062.26;;;18.24;100.00
50867;BME280;36839;51.946;21.002;2023-08-30T12:51:22;99061.59;;;18.18;100.00
50867;BME280;36839;51.946;21.002;2023-08-30T12:53:50;99067.61;;;18.15;100.00
50867;BME280;36839;51.946;21.002;2023-08-30T12:56:16;99068.50;;;18.08;100.00